createdAt,value
2023-05-19T00:02:22.376Z,9.24
2023-05-19T00:04:49.638Z,9.54
2023-05-19T00:07:18.833Z,9.63
2023-05-19T00:09:45.669Z,9.55
2023-05-19T00:12:13.117Z,9.45
2023-05-19T00:14:40.202Z,9.32
2023-05-19T00:17:07.166Z,9.11
2023-05-19T00:19:33.679Z,9.23
2023-05-19T00:22:00.420Z,9.13
2023-05-19T00:24:26.965Z,8.84
2023-05-19T00:26:53.709Z,9.19
2023-05-19T00:29:20.269Z,9.04
2023-05-19T00:31:46.855Z,8.96
2023-05-19T00:34:13.586Z,8.89
2023-05-19T00:36:40.209Z,9.10
2023-05-19T00:39:06.861Z,8.93
2023-05-19T00:41:33.406Z,9.16
2023-05-19T00:44:00.046Z,9.23
2023-05-19T00:46:26.747Z,8.82
2023-05-19T00:48:53.434Z,9.08
2023-05-19T00:51:20.231Z,9.06
2023-05-19T00:53:48.628Z,9.07
2023-05-19T00:56:16.288Z,8.86
2023-05-19T00:58:43.481Z,8.57
2023-05-19T01:01:10.022Z,8.82
2023-05-19T01:03:37.382Z,8.95
2023-05-19T01:06:04.900Z,8.92
2023-05-19T01:08:37.034Z,8.81
2023-05-19T01:11:08.128Z,8.60
2023-05-19T01:13:36.627Z,8.71
2023-05-19T01:16:31.917Z,8.61
2023-05-19T01:19:23.599Z,8.62
2023-05-19T01:22:14.821Z,8.64
2023-05-19T01:24:56.720Z,8.51
2023-05-19T01:28:10.178Z,8.49
2023-05-19T01:30:44.881Z,8.39
2023-05-19T01:33:13.985Z,8.13
2023-05-19T01:35:42.656Z,8.49
2023-05-19T01:38:11.993Z,8.42
2023-05-19T01:40:41.174Z,8.38
2023-05-19T01:43:10.562Z,8.38
2023-05-19T01:45:37.604Z,8.36
2023-05-19T01:48:05.033Z,8.29
2023-05-19T01:50:32.500Z,8.34
2023-05-19T01:53:00.634Z,8.43
2023-05-19T01:55:27.987Z,8.38
2023-05-19T01:58:47.313Z,8.44
2023-05-19T02:01:26.835Z,8.38
2023-05-19T02:04:15.148Z,8.10
2023-05-19T02:06:55.603Z,8.25
2023-05-19T02:09:47.095Z,8.28
2023-05-19T02:12:20.284Z,8.21
2023-05-19T02:14:56.080Z,8.28
2023-05-19T02:17:26.637Z,8.17
2023-05-19T02:19:53.550Z,8.21
2023-05-19T02:22:20.555Z,8.18
2023-05-19T02:24:47.482Z,8.22
2023-05-19T02:27:14.263Z,7.89
2023-05-19T02:29:40.859Z,8.10
2023-05-19T02:32:07.889Z,8.05
2023-05-19T02:34:34.604Z,8.10
2023-05-19T02:37:10.314Z,7.96
2023-05-19T02:39:37.384Z,7.85
2023-05-19T02:42:04.392Z,7.48
2023-05-19T02:44:32.053Z,7.99
2023-05-19T02:46:59.313Z,7.85
2023-05-19T02:49:26.281Z,7.90
2023-05-19T02:51:53.091Z,7.76
2023-05-19T02:54:19.709Z,7.83
2023-05-19T02:56:46.716Z,7.29
2023-05-19T02:59:13.528Z,7.64
2023-05-19T03:01:40.998Z,7.77
2023-05-19T03:04:07.923Z,7.65
2023-05-19T03:06:34.961Z,7.60
2023-05-19T03:09:01.794Z,7.74
2023-05-19T03:11:28.719Z,7.76
2023-05-19T03:13:55.699Z,7.71
2023-05-19T03:16:22.628Z,7.17
2023-05-19T03:18:49.345Z,7.72
2023-05-19T03:21:16.481Z,7.71
2023-05-19T03:23:43.310Z,7.31
2023-05-19T03:26:11.299Z,7.53
2023-05-19T03:28:38.028Z,7.48
2023-05-19T03:31:04.825Z,7.58
2023-05-19T03:33:31.659Z,7.60
2023-05-19T03:35:58.332Z,7.68
2023-05-19T03:38:27.271Z,7.36
2023-05-19T03:40:54.034Z,7.43
2023-05-19T03:43:20.552Z,7.06
2023-05-19T03:45:48.421Z,7.52
2023-05-19T03:48:15.117Z,7.30
2023-05-19T03:50:42.532Z,6.84
2023-05-19T03:53:09.075Z,7.20
2023-05-19T03:55:35.913Z,7.29
2023-05-19T03:58:02.915Z,7.49
2023-05-19T04:00:30.594Z,7.46
2023-05-19T04:02:57.871Z,7.59
2023-05-19T04:05:24.781Z,7.52
2023-05-19T04:07:51.276Z,7.49
2023-05-19T04:10:18.822Z,7.48
2023-05-19T04:12:45.479Z,7.13
2023-05-19T04:15:12.209Z,7.47
2023-05-19T04:17:39.660Z,7.55
2023-05-19T04:20:07.134Z,7.56
2023-05-19T04:22:33.930Z,7.14
2023-05-19T04:25:00.836Z,7.57
2023-05-19T04:27:27.624Z,7.69
2023-05-19T04:29:54.294Z,7.68
2023-05-19T04:32:21.142Z,7.66
2023-05-19T04:34:47.690Z,7.76
2023-05-19T04:37:14.543Z,7.69
2023-05-19T04:39:41.739Z,7.74
2023-05-19T04:42:10.194Z,7.76
2023-05-19T04:44:36.767Z,7.81
2023-05-19T04:47:04.074Z,7.83
2023-05-19T04:49:30.888Z,7.84
2023-05-19T04:51:58.008Z,7.84
2023-05-19T04:54:24.592Z,7.99
2023-05-19T04:56:51.308Z,7.96
2023-05-19T04:59:17.813Z,8.03
2023-05-19T05:01:44.435Z,8.08
2023-05-19T05:04:11.789Z,8.11
2023-05-19T05:06:38.841Z,8.04
2023-05-19T05:09:05.809Z,8.13
2023-05-19T05:11:33.104Z,8.22
2023-05-19T05:14:00.199Z,8.26
2023-05-19T05:16:28.757Z,8.36
2023-05-19T05:18:56.232Z,8.44
2023-05-19T05:21:23.609Z,8.48
2023-05-19T05:23:51.491Z,8.56
2023-05-19T05:26:19.474Z,8.62
2023-05-19T05:28:46.106Z,8.71
2023-05-19T05:31:14.076Z,8.61
2023-05-19T05:33:41.129Z,8.61
2023-05-19T05:36:08.231Z,8.67
2023-05-19T05:38:35.074Z,8.49
2023-05-19T05:41:02.670Z,8.83
2023-05-19T05:43:30.537Z,8.91
2023-05-19T05:45:58.013Z,8.91
2023-05-19T05:48:25.569Z,8.95
2023-05-19T05:50:52.886Z,9.07
2023-05-19T05:53:20.791Z,9.17
2023-05-19T05:55:48.009Z,9.35
2023-05-19T05:58:15.213Z,9.51
2023-05-19T06:00:43.256Z,9.49
2023-05-19T06:03:10.614Z,9.52
2023-05-19T06:05:38.707Z,9.83
2023-05-19T06:08:06.024Z,10.29
2023-05-19T06:10:33.282Z,9.82
2023-05-19T06:13:00.867Z,10.55
2023-05-19T06:15:27.916Z,11.23
2023-05-19T06:17:54.722Z,12.17
2023-05-19T06:20:21.639Z,12.37
2023-05-19T06:22:48.436Z,12.59
2023-05-19T06:25:16.069Z,13.29
2023-05-19T06:27:43.125Z,12.71
2023-05-19T06:30:09.982Z,12.93
2023-05-19T06:32:36.695Z,13.05
2023-05-19T06:35:03.536Z,13.39
2023-05-19T06:37:30.870Z,14.27
2023-05-19T06:39:57.950Z,14.12
2023-05-19T06:42:26.780Z,14.34
2023-05-19T06:44:53.788Z,13.57
2023-05-19T06:47:20.656Z,13.23
2023-05-19T06:49:48.385Z,14.42
2023-05-19T06:52:15.037Z,14.97
2023-05-19T06:54:41.775Z,15.53
2023-05-19T06:57:08.480Z,15.61
2023-05-19T06:59:34.938Z,15.75
2023-05-19T07:02:01.641Z,16.13
2023-05-19T07:04:28.354Z,16.13
2023-05-19T07:06:55.082Z,15.99
2023-05-19T07:09:21.692Z,15.01
2023-05-19T07:11:49.565Z,14.91
2023-05-19T07:14:16.197Z,15.25
2023-05-19T07:16:43.802Z,14.60
2023-05-19T07:19:10.786Z,15.03
2023-05-19T07:21:37.430Z,14.69
2023-05-19T07:24:04.598Z,14.69
2023-05-19T07:26:32.020Z,13.85
2023-05-19T07:28:58.771Z,14.63
2023-05-19T07:31:25.417Z,14.95
2023-05-19T07:33:54.368Z,15.74
2023-05-19T07:36:21.680Z,16.24
2023-05-19T07:38:48.696Z,16.39
2023-05-19T07:41:15.453Z,16.55
2023-05-19T07:43:43.183Z,16.71
2023-05-19T07:46:09.851Z,17.34
2023-05-19T07:48:37.449Z,17.60
2023-05-19T07:51:04.183Z,18.38
2023-05-19T07:53:31.091Z,18.57
2023-05-19T07:55:58.836Z,18.36
2023-05-19T07:58:25.664Z,18.39
2023-05-19T08:00:52.304Z,16.89
2023-05-19T08:03:19.156Z,18.71
2023-05-19T08:05:45.829Z,18.02
2023-05-19T08:08:12.420Z,17.87
2023-05-19T08:10:39.193Z,18.78
2023-05-19T08:13:05.716Z,19.53
2023-05-19T08:15:32.957Z,16.39
2023-05-19T08:17:59.979Z,19.17
2023-05-19T08:20:26.800Z,19.65
2023-05-19T08:22:53.570Z,18.19
2023-05-19T08:25:20.409Z,19.43
2023-05-19T08:27:47.875Z,19.48
2023-05-19T08:30:14.601Z,20.64
2023-05-19T08:32:41.966Z,20.35
2023-05-19T08:35:09.429Z,20.76
2023-05-19T08:37:36.309Z,20.85
2023-05-19T08:40:03.227Z,17.94
2023-05-19T08:42:30.272Z,19.77
2023-05-19T08:44:57.052Z,20.47
2023-05-19T08:47:24.095Z,21.86
2023-05-19T08:49:55.728Z,20.88
2023-05-19T08:52:52.852Z,19.05
2023-05-19T08:55:22.692Z,21.36
2023-05-19T08:57:49.856Z,21.43
2023-05-19T09:00:17.714Z,20.74
2023-05-19T09:02:55.163Z,21.76
2023-05-19T09:05:28.419Z,20.43
2023-05-19T09:07:55.727Z,18.27
2023-05-19T09:10:22.468Z,19.55
2023-05-19T09:12:49.496Z,20.06
2023-05-19T09:15:17.586Z,22.21
2023-05-19T09:17:45.945Z,21.62
2023-05-19T09:20:12.936Z,21.74
2023-05-19T09:22:46.273Z,22.23
2023-05-19T09:25:25.940Z,21.73
2023-05-19T09:27:55.192Z,20.11
2023-05-19T09:30:21.968Z,18.03
2023-05-19T09:32:48.683Z,18.72
2023-05-19T09:35:15.674Z,19.85
2023-05-19T09:37:43.372Z,21.55
2023-05-19T09:40:11.358Z,19.21
2023-05-19T09:42:40.865Z,20.02
2023-05-19T09:45:08.847Z,18.76
2023-05-19T09:47:39.613Z,19.78
2023-05-19T09:50:07.679Z,20.38
2023-05-19T09:52:44.618Z,20.42
2023-05-19T09:55:13.497Z,20.18
2023-05-19T09:57:40.410Z,20.54
2023-05-19T10:00:11.591Z,20.22
2023-05-19T10:02:42.615Z,21.39
2023-05-19T10:05:18.075Z,21.51
2023-05-19T10:07:44.768Z,20.41
2023-05-19T10:10:13.026Z,20.20
2023-05-19T10:12:40.815Z,22.11
2023-05-19T10:15:12.471Z,22.54
2023-05-19T10:17:40.495Z,20.53
2023-05-19T10:20:12.161Z,18.63
2023-05-19T10:22:40.365Z,20.34
2023-05-19T10:25:08.308Z,20.44
2023-05-19T10:27:37.711Z,20.02
2023-05-19T10:30:16.469Z,20.13
2023-05-19T10:32:46.910Z,20.12
2023-05-19T10:36:07.507Z,19.35
2023-05-19T10:38:48.953Z,18.13
2023-05-19T10:41:42.376Z,18.82
2023-05-19T10:44:41.048Z,18.20
2023-05-19T10:47:08.098Z,18.39
2023-05-19T10:49:36.347Z,18.23
2023-05-19T10:52:03.969Z,19.02
2023-05-19T10:54:41.289Z,19.57
2023-05-19T10:57:08.314Z,19.24
2023-05-19T10:59:36.642Z,18.02
2023-05-19T11:02:04.410Z,18.32
2023-05-19T11:04:45.535Z,17.13
2023-05-19T11:07:17.519Z,17.46
2023-05-19T11:09:44.227Z,16.60
2023-05-19T11:12:10.925Z,17.86
2023-05-19T11:14:37.789Z,18.10
2023-05-19T11:17:04.593Z,18.21
2023-05-19T11:19:35.432Z,18.86
2023-05-19T11:22:13.327Z,19.14
2023-05-19T11:24:47.007Z,19.02
2023-05-19T11:27:19.496Z,19.16
2023-05-19T11:29:48.148Z,18.92
2023-05-19T11:32:15.333Z,19.00
2023-05-19T11:34:41.842Z,19.38
2023-05-19T11:37:08.573Z,19.17
2023-05-19T11:39:35.348Z,18.77
2023-05-19T11:42:02.529Z,18.20
2023-05-19T11:44:29.035Z,19.18
2023-05-19T11:46:55.977Z,18.37
2023-05-19T11:49:22.976Z,17.67
2023-05-19T11:51:49.746Z,18.15
2023-05-19T11:54:16.350Z,17.56
2023-05-19T11:56:43.427Z,18.79
2023-05-19T11:59:10.168Z,18.23
2023-05-19T12:01:36.835Z,17.55
2023-05-19T12:04:08.867Z,18.59
2023-05-19T12:06:35.440Z,18.24
2023-05-19T12:09:02.436Z,19.12
2023-05-19T12:11:29.194Z,19.26
2023-05-19T12:13:58.955Z,19.57
2023-05-19T12:16:33.568Z,19.08
2023-05-19T12:19:00.267Z,18.41
2023-05-19T12:21:34.253Z,19.32
2023-05-19T12:24:01.794Z,19.10
2023-05-19T12:26:28.420Z,19.28
2023-05-19T12:28:55.153Z,18.94
2023-05-19T12:31:21.944Z,18.91
2023-05-19T12:33:49.336Z,19.26
2023-05-19T12:36:16.062Z,19.19
2023-05-19T12:38:43.382Z,19.67
2023-05-19T12:41:13.332Z,19.18
2023-05-19T12:43:41.030Z,18.54
2023-05-19T12:46:11.557Z,19.34
2023-05-19T12:48:45.543Z,19.67
2023-05-19T12:51:19.326Z,19.59
2023-05-19T12:53:46.645Z,19.34
2023-05-19T12:56:15.146Z,19.67
2023-05-19T12:58:42.568Z,20.03
2023-05-19T13:01:19.275Z,19.94
2023-05-19T13:03:46.147Z,20.24
2023-05-19T13:06:12.876Z,20.20
2023-05-19T13:08:39.540Z,20.48
2023-05-19T13:11:06.950Z,21.36
2023-05-19T13:13:34.373Z,21.70
2023-05-19T13:16:01.000Z,21.55
2023-05-19T13:18:27.639Z,21.60
2023-05-19T13:20:54.206Z,21.30
2023-05-19T13:23:21.665Z,21.32
2023-05-19T13:25:49.711Z,21.64
2023-05-19T13:28:16.281Z,20.90
2023-05-19T13:30:43.767Z,21.98
2023-05-19T13:33:10.467Z,22.62
2023-05-19T13:35:37.949Z,22.29
2023-05-19T13:38:08.733Z,22.67
2023-05-19T13:40:35.844Z,22.60
2023-05-19T13:43:05.154Z,22.22
2023-05-19T13:45:32.527Z,21.50
2023-05-19T13:47:59.175Z,22.20
2023-05-19T13:50:25.880Z,22.29
2023-05-19T13:52:52.668Z,21.12
2023-05-19T13:55:19.691Z,20.23
2023-05-19T13:57:46.541Z,21.99
2023-05-19T14:00:13.634Z,22.25
2023-05-19T14:02:40.404Z,22.86
2023-05-19T14:05:07.438Z,21.74
2023-05-19T14:07:35.183Z,23.33
2023-05-19T14:10:03.316Z,21.82
2023-05-19T14:12:38.070Z,22.78
2023-05-19T14:15:11.542Z,20.64
2023-05-19T14:17:38.274Z,21.50
2023-05-19T14:20:06.079Z,22.54
2023-05-19T14:22:32.933Z,22.70
2023-05-19T14:24:59.831Z,21.68
2023-05-19T14:27:27.118Z,22.18
2023-05-19T14:29:54.040Z,22.78
2023-05-19T14:32:20.873Z,21.89
2023-05-19T14:34:48.274Z,22.03
2023-05-19T14:37:14.781Z,19.61
2023-05-19T14:39:41.292Z,20.94
2023-05-19T14:42:07.817Z,21.60
2023-05-19T14:44:34.568Z,22.02
2023-05-19T14:47:05.378Z,22.12
2023-05-19T14:49:32.029Z,20.84
2023-05-19T14:51:58.791Z,21.20
2023-05-19T14:54:25.593Z,21.62
2023-05-19T14:56:53.106Z,21.17
2023-05-19T14:59:19.631Z,20.67
2023-05-19T15:01:46.514Z,20.82
2023-05-19T15:04:14.069Z,21.04
2023-05-19T15:06:40.854Z,20.77
2023-05-19T15:09:07.403Z,19.88
2023-05-19T15:11:34.151Z,21.42
2023-05-19T15:14:01.097Z,21.43
2023-05-19T15:16:27.645Z,21.18
2023-05-19T15:18:54.362Z,21.56
2023-05-19T15:21:21.245Z,20.62
2023-05-19T15:23:48.067Z,21.01
2023-05-19T15:26:14.707Z,20.50
2023-05-19T15:28:41.869Z,19.68
2023-05-19T15:31:09.154Z,19.50
2023-05-19T15:33:36.068Z,20.41
2023-05-19T15:36:03.015Z,21.68
2023-05-19T15:38:30.085Z,20.87
2023-05-19T15:40:57.243Z,21.18
2023-05-19T15:43:24.541Z,20.92
2023-05-19T15:45:51.409Z,21.45
2023-05-19T15:48:18.108Z,21.72
2023-05-19T15:50:46.358Z,21.67
2023-05-19T15:53:13.338Z,21.10
2023-05-19T15:55:39.855Z,21.38
2023-05-19T15:58:07.032Z,22.33
2023-05-19T16:00:33.928Z,21.40
2023-05-19T16:03:00.855Z,20.01
2023-05-19T16:05:27.721Z,21.07
2023-05-19T16:07:54.386Z,21.41
2023-05-19T16:10:21.366Z,20.50
2023-05-19T16:12:48.329Z,20.87
2023-05-19T16:15:14.870Z,21.71
2023-05-19T16:17:41.531Z,20.17
2023-05-19T16:20:08.824Z,20.85
2023-05-19T16:22:35.633Z,20.20
2023-05-19T16:25:02.463Z,19.79
2023-05-19T16:27:28.976Z,20.18
2023-05-19T16:29:55.774Z,19.89
2023-05-19T16:32:23.573Z,19.76
2023-05-19T16:34:50.461Z,19.67
2023-05-19T16:37:16.991Z,18.63
2023-05-19T16:39:43.911Z,19.15
2023-05-19T16:42:10.634Z,19.91
2023-05-19T16:44:37.722Z,19.73
2023-05-19T16:47:04.534Z,19.86
2023-05-19T16:49:31.265Z,19.28
2023-05-19T16:51:57.898Z,18.90
2023-05-19T16:54:24.704Z,19.52
2023-05-19T16:56:52.716Z,19.65
2023-05-19T16:59:19.670Z,19.54
2023-05-19T17:01:47.079Z,19.70
2023-05-19T17:04:13.757Z,19.95
2023-05-19T17:06:40.221Z,19.51
2023-05-19T17:09:07.077Z,19.68
2023-05-19T17:11:33.969Z,19.92
2023-05-19T17:14:00.765Z,19.85
2023-05-19T17:16:28.520Z,19.87
2023-05-19T17:18:55.460Z,19.73
2023-05-19T17:21:22.155Z,19.36
2023-05-19T17:23:48.691Z,19.55
2023-05-19T17:26:15.488Z,19.70
2023-05-19T17:28:42.115Z,19.21
2023-05-19T17:31:12.602Z,18.51
2023-05-19T17:33:39.803Z,19.29
2023-05-19T17:36:07.639Z,19.32
2023-05-19T17:38:35.787Z,19.22
2023-05-19T17:41:03.117Z,18.95
2023-05-19T17:43:30.189Z,18.85
2023-05-19T17:45:58.684Z,19.07
2023-05-19T17:48:26.079Z,18.73
2023-05-19T17:50:52.649Z,19.21
2023-05-19T17:53:19.881Z,18.80
2023-05-19T17:55:51.258Z,18.85
2023-05-19T17:58:19.371Z,18.82
2023-05-19T18:00:46.892Z,18.72
2023-05-19T18:03:13.995Z,18.41
2023-05-19T18:05:40.766Z,18.80
2023-05-19T18:08:08.121Z,18.81
2023-05-19T18:10:37.942Z,18.72
2023-05-19T18:13:05.860Z,18.67
2023-05-19T18:15:32.876Z,18.55
2023-05-19T18:17:59.878Z,18.42
2023-05-19T18:20:26.946Z,18.11
2023-05-19T18:22:53.703Z,18.06
2023-05-19T18:25:20.189Z,17.61
2023-05-19T18:27:46.765Z,18.14
2023-05-19T18:30:13.515Z,17.83
2023-05-19T18:32:40.358Z,18.01
2023-05-19T18:35:08.334Z,17.84
2023-05-19T18:37:35.407Z,17.65
2023-05-19T18:40:01.987Z,17.21
2023-05-19T18:42:28.721Z,17.57
2023-05-19T18:44:55.255Z,17.33
2023-05-19T18:47:21.905Z,17.18
2023-05-19T18:49:48.961Z,17.33
2023-05-19T18:52:15.933Z,17.33
2023-05-19T18:54:42.691Z,16.92
2023-05-19T18:57:09.254Z,17.02
2023-05-19T18:59:35.860Z,16.78
2023-05-19T19:02:04.826Z,16.96
2023-05-19T19:04:31.689Z,16.91
2023-05-19T19:06:58.503Z,16.87
2023-05-19T19:09:25.107Z,16.32
2023-05-19T19:11:52.785Z,16.66
2023-05-19T19:14:19.341Z,16.75
2023-05-19T19:16:45.958Z,16.55
2023-05-19T19:19:12.773Z,16.34
2023-05-19T19:21:39.526Z,16.45
2023-05-19T19:24:07.111Z,16.31
2023-05-19T19:26:33.719Z,15.83
2023-05-19T19:29:00.794Z,16.34
2023-05-19T19:31:27.488Z,16.15
2023-05-19T19:33:54.913Z,16.15
2023-05-19T19:36:21.435Z,16.18
2023-05-19T19:38:48.065Z,16.08
2023-05-19T19:41:14.598Z,15.70
2023-05-19T19:43:41.343Z,15.57
2023-05-19T19:46:08.622Z,15.91
2023-05-19T19:48:35.726Z,15.93
2023-05-19T19:51:02.594Z,15.85
2023-05-19T19:53:29.195Z,15.46
2023-05-19T19:55:57.601Z,15.43
2023-05-19T19:58:24.605Z,15.53
2023-05-19T20:01:04.514Z,15.46
2023-05-19T20:03:31.314Z,15.16
2023-05-19T20:05:57.847Z,15.48
2023-05-19T20:08:25.977Z,15.30
2023-05-19T20:10:53.297Z,15.45
2023-05-19T20:13:20.101Z,15.25
2023-05-19T20:15:47.701Z,15.13
2023-05-19T20:18:14.351Z,14.81
2023-05-19T20:20:41.616Z,15.36
2023-05-19T20:23:08.695Z,15.23
2023-05-19T20:25:38.360Z,15.01
2023-05-19T20:28:05.035Z,14.79
2023-05-19T20:30:31.986Z,15.17
2023-05-19T20:32:58.657Z,14.80
2023-05-19T20:35:25.432Z,14.84
2023-05-19T20:37:52.775Z,15.11
2023-05-19T20:40:19.419Z,14.89
2023-05-19T20:42:45.927Z,14.63
2023-05-19T20:45:12.731Z,15.05
2023-05-19T20:47:39.282Z,14.95
2023-05-19T20:50:06.682Z,15.00
2023-05-19T20:52:33.258Z,15.03
2023-05-19T20:54:59.715Z,14.46
2023-05-19T20:57:28.713Z,14.75
2023-05-19T20:59:55.455Z,14.60
2023-05-19T21:02:22.030Z,14.63
2023-05-19T21:04:48.517Z,14.49
2023-05-19T21:07:15.288Z,14.84
2023-05-19T21:09:42.539Z,14.52
2023-05-19T21:12:09.372Z,14.57
2023-05-19T21:14:36.142Z,14.30
2023-05-19T21:17:03.112Z,14.43
2023-05-19T21:19:29.725Z,14.41
2023-05-19T21:21:56.382Z,13.92
2023-05-19T21:24:23.495Z,14.43
2023-05-19T21:26:50.377Z,14.24
2023-05-19T21:29:16.901Z,14.52
2023-05-19T21:31:43.620Z,14.12
2023-05-19T21:34:10.640Z,14.31
2023-05-19T21:36:37.284Z,13.85
2023-05-19T21:39:04.695Z,13.94
2023-05-19T21:41:31.646Z,14.30
2023-05-19T21:43:58.377Z,14.17
2023-05-19T21:46:25.338Z,14.12
2023-05-19T21:48:51.953Z,13.88
2023-05-19T21:51:18.564Z,13.83
2023-05-19T21:53:45.154Z,13.66
2023-05-19T21:56:12.561Z,13.88
2023-05-19T21:58:39.593Z,13.68
2023-05-19T22:01:06.147Z,13.83
2023-05-19T22:03:33.583Z,13.70
2023-05-19T22:06:00.826Z,13.77
2023-05-19T22:08:28.093Z,13.59
2023-05-19T22:10:54.641Z,13.62
2023-05-19T22:13:21.243Z,13.73
2023-05-19T22:15:48.921Z,13.25
2023-05-19T22:18:15.631Z,13.62
2023-05-19T22:20:42.751Z,13.63
2023-05-19T22:23:09.495Z,13.55
2023-05-19T22:25:36.438Z,13.55
2023-05-19T22:28:03.053Z,13.40
2023-05-19T22:30:30.070Z,13.41
2023-05-19T22:32:57.337Z,13.41
2023-05-19T22:35:24.348Z,13.22
2023-05-19T22:37:50.858Z,13.48
2023-05-19T22:40:17.704Z,13.40
2023-05-19T22:42:44.256Z,13.43
2023-05-19T22:45:11.361Z,13.50
2023-05-19T22:47:38.746Z,13.33
2023-05-19T22:50:06.308Z,13.34
2023-05-19T22:52:32.902Z,13.32
2023-05-19T22:55:00.374Z,13.32
2023-05-19T22:57:27.224Z,13.22
2023-05-19T22:59:54.288Z,13.13
2023-05-19T23:02:21.372Z,13.26
2023-05-19T23:04:48.347Z,13.22
2023-05-19T23:07:15.215Z,13.38
2023-05-19T23:09:42.241Z,13.40
2023-05-19T23:12:09.035Z,13.25
2023-05-19T23:14:35.524Z,12.86
2023-05-19T23:17:04.133Z,13.30
2023-05-19T23:19:31.127Z,13.34
2023-05-19T23:21:57.693Z,13.22
2023-05-19T23:24:24.332Z,13.16
2023-05-19T23:26:50.965Z,13.21
2023-05-19T23:29:17.506Z,13.12
2023-05-19T23:31:44.787Z,13.09
2023-05-19T23:34:11.595Z,13.21
2023-05-19T23:36:38.472Z,13.24
2023-05-19T23:39:04.994Z,13.19
2023-05-19T23:41:31.800Z,13.01
2023-05-19T23:43:59.588Z,12.88
2023-05-19T23:46:26.519Z,12.98
2023-05-19T23:48:53.410Z,13.03
2023-05-19T23:51:19.915Z,13.01
2023-05-19T23:53:46.440Z,12.96
2023-05-19T23:56:13.209Z,12.84
2023-05-19T23:58:39.922Z,12.98
